createdAt,value
2023-01-07T00:01:13.799Z,101774.00
2023-01-07T00:03:40.846Z,101779.50
2023-01-07T00:06:16.886Z,101776.00
2023-01-07T00:08:45.581Z,101777.97
2023-01-07T00:11:16.448Z,101773.16
2023-01-07T00:13:44.387Z,101765.19
2023-01-07T00:16:13.778Z,101762.53
2023-01-07T00:18:41.348Z,101760.22
2023-01-07T00:21:10.042Z,101766.19
2023-01-07T00:23:38.698Z,101767.00
2023-01-07T00:26:07.236Z,101762.53
2023-01-07T00:28:35.570Z,101759.03
2023-01-07T00:31:04.107Z,101760.88
2023-01-07T00:33:30.947Z,101761.88
2023-01-07T00:36:07.775Z,101754.72
2023-01-07T00:38:35.669Z,101752.06
2023-01-07T00:41:02.726Z,101749.59
2023-01-07T00:43:29.283Z,101739.13
2023-01-07T00:45:55.813Z,101745.41
2023-01-07T00:48:23.813Z,101736.63
2023-01-07T00:50:52.385Z,101737.28
2023-01-07T00:53:19.293Z,101736.28
2023-01-07T00:55:47.275Z,101734.97
2023-01-07T00:58:25.218Z,101731.63
2023-01-07T01:00:56.601Z,101722.34
2023-01-07T01:03:23.571Z,101725.63
2023-01-07T01:05:50.718Z,101723.66
2023-01-07T01:08:18.495Z,101725.63
2023-01-07T01:10:45.536Z,101722.31
2023-01-07T01:13:17.351Z,101717.00
2023-01-07T01:15:46.062Z,101713.00
2023-01-07T01:18:12.557Z,101713.34
2023-01-07T01:20:39.226Z,101713.66
2023-01-07T01:23:06.473Z,101707.69
2023-01-07T01:25:33.361Z,101712.19
2023-01-07T01:27:59.915Z,101707.19
2023-01-07T01:30:26.759Z,101700.53
2023-01-07T01:32:53.500Z,101694.56
2023-01-07T01:35:20.046Z,101707.84
2023-01-07T01:37:46.508Z,101705.19
2023-01-07T01:40:13.482Z,101698.66
2023-01-07T01:42:39.928Z,101708.31
2023-01-07T01:45:07.144Z,101710.25
2023-01-07T01:47:49.339Z,101705.66
2023-01-07T01:50:44.111Z,101707.59
2023-01-07T01:53:25.886Z,101713.63
2023-01-07T01:55:58.707Z,101708.31
2023-01-07T01:58:34.631Z,101705.13
2023-01-07T02:01:01.332Z,101705.78
2023-01-07T02:03:30.596Z,101700.34
2023-01-07T02:05:57.471Z,101707.84
2023-01-07T02:08:23.994Z,101705.00
2023-01-07T02:11:14.792Z,101705.66
2023-01-07T02:13:59.984Z,101704.19
2023-01-07T02:16:32.536Z,101704.00
2023-01-07T02:19:42.902Z,101699.69
2023-01-07T02:22:27.009Z,101699.03
2023-01-07T02:25:09.853Z,101692.91
2023-01-07T02:28:08.580Z,101697.72
2023-01-07T02:31:12.636Z,101698.38
2023-01-07T02:34:02.705Z,101699.03
2023-01-07T02:37:06.865Z,101693.28
2023-01-07T02:39:45.523Z,101690.63
2023-01-07T02:42:27.563Z,101687.78
2023-01-07T02:45:33.630Z,101691.28
2023-01-07T02:48:05.249Z,101682.47
2023-01-07T02:50:32.024Z,101693.28
2023-01-07T02:52:58.491Z,101686.78
2023-01-07T02:55:43.290Z,101691.72
2023-01-07T02:58:28.135Z,101684.09
2023-01-07T03:01:51.795Z,101675.47
2023-01-07T03:04:49.104Z,101666.78
2023-01-07T03:07:40.227Z,101661.16
2023-01-07T03:10:21.488Z,101658.50
2023-01-07T03:13:12.161Z,101649.88
2023-01-07T03:15:48.152Z,101650.50
2023-01-07T03:18:20.132Z,101653.16
2023-01-07T03:20:51.062Z,101652.50
2023-01-07T03:23:21.502Z,101651.16
2023-01-07T03:25:52.062Z,101648.69
2023-01-07T03:28:27.240Z,101652.31
2023-01-07T03:30:56.612Z,101642.84
2023-01-07T03:33:37.122Z,101651.78
2023-01-07T03:36:06.724Z,101632.88
2023-01-07T03:38:35.331Z,101641.00
2023-01-07T03:41:02.525Z,101638.50
2023-01-07T03:43:29.091Z,101636.03
2023-01-07T03:45:57.810Z,101635.50
2023-01-07T03:48:24.430Z,101632.50
2023-01-07T03:50:50.977Z,101628.38
2023-01-07T03:53:17.425Z,101623.88
2023-01-07T03:55:43.960Z,101621.53
2023-01-07T03:58:10.436Z,101624.03
2023-01-07T04:00:36.980Z,101624.19
2023-01-07T04:03:03.507Z,101620.06
2023-01-07T04:05:30.078Z,101609.59
2023-01-07T04:07:56.597Z,101614.22
2023-01-07T04:10:23.107Z,101598.63
2023-01-07T04:12:49.582Z,101594.63
2023-01-07T04:15:16.086Z,101596.16
2023-01-07T04:17:42.535Z,101599.94
2023-01-07T04:20:10.275Z,101597.28
2023-01-07T04:22:36.815Z,101589.50
2023-01-07T04:25:03.692Z,101586.69
2023-01-07T04:27:30.883Z,101586.19
2023-01-07T04:29:57.375Z,101583.38
2023-01-07T04:32:23.878Z,101585.03
2023-01-07T04:34:50.372Z,101576.09
2023-01-07T04:37:16.876Z,101570.78
2023-01-07T04:39:43.309Z,101589.03
2023-01-07T04:42:09.831Z,101569.13
2023-01-07T04:44:36.292Z,101564.81
2023-01-07T04:47:02.832Z,101558.84
2023-01-07T04:49:29.273Z,101563.16
2023-01-07T04:51:55.780Z,101564.13
2023-01-07T04:54:22.270Z,101569.28
2023-01-07T04:56:49.620Z,101572.09
2023-01-07T04:59:16.092Z,101559.69
2023-01-07T05:01:42.778Z,101566.31
2023-01-07T05:04:09.390Z,101554.19
2023-01-07T05:06:35.914Z,101564.16
2023-01-07T05:09:02.417Z,101554.41
2023-01-07T05:11:28.956Z,101559.22
2023-01-07T05:13:55.416Z,101552.09
2023-01-07T05:16:21.895Z,101545.13
2023-01-07T05:18:48.418Z,101557.09
2023-01-07T05:21:14.951Z,101547.16
2023-01-07T05:23:41.640Z,101541.16
2023-01-07T05:26:08.147Z,101544.63
2023-01-07T05:28:34.983Z,101554.25
2023-01-07T05:31:02.191Z,101540.00
2023-01-07T05:33:28.855Z,101536.69
2023-01-07T05:35:55.418Z,101542.84
2023-01-07T05:38:21.962Z,101540.03
2023-01-07T05:40:49.919Z,101540.53
2023-01-07T05:43:17.039Z,101532.72
2023-01-07T05:45:45.693Z,101533.72
2023-01-07T05:48:12.964Z,101532.72
2023-01-07T05:50:39.610Z,101527.75
2023-01-07T05:53:06.112Z,101534.72
2023-01-07T05:55:32.734Z,101524.44
2023-01-07T05:57:59.203Z,101522.31
2023-01-07T06:00:25.654Z,101527.59
2023-01-07T06:02:52.143Z,101529.94
2023-01-07T06:05:18.668Z,101513.69
2023-01-07T06:07:45.962Z,101514.00
2023-01-07T06:10:12.464Z,101504.56
2023-01-07T06:12:38.937Z,101511.69
2023-01-07T06:15:07.282Z,101503.72
2023-01-07T06:17:34.598Z,101494.13
2023-01-07T06:20:01.122Z,101496.59
2023-01-07T06:22:27.608Z,101498.78
2023-01-07T06:24:54.109Z,101489.16
2023-01-07T06:27:20.527Z,101486.66
2023-01-07T06:29:46.991Z,101483.53
2023-01-07T06:32:13.504Z,101477.56
2023-01-07T06:34:40.001Z,101477.38
2023-01-07T06:37:06.441Z,101466.44
2023-01-07T06:39:32.922Z,101478.22
2023-01-07T06:41:59.426Z,101484.84
2023-01-07T06:44:25.936Z,101465.63
2023-01-07T06:46:52.428Z,101469.25
2023-01-07T06:49:18.867Z,101461.97
2023-01-07T06:51:45.376Z,101462.31
2023-01-07T06:54:11.934Z,101465.94
2023-01-07T06:56:38.390Z,101459.13
2023-01-07T06:59:04.865Z,101448.84
2023-01-07T07:01:31.394Z,101441.22
2023-01-07T07:03:57.967Z,101441.56
2023-01-07T07:06:24.561Z,101448.84
2023-01-07T07:08:51.014Z,101441.06
2023-01-07T07:11:17.509Z,101437.91
2023-01-07T07:13:44.221Z,101436.41
2023-01-07T07:16:10.765Z,101428.78
2023-01-07T07:18:37.409Z,101425.31
2023-01-07T07:21:03.980Z,101424.81
2023-01-07T07:23:30.449Z,101427.63
2023-01-07T07:25:56.931Z,101412.88
2023-01-07T07:28:23.419Z,101414.03
2023-01-07T07:30:50.003Z,101413.22
2023-01-07T07:33:19.079Z,101418.50
2023-01-07T07:35:46.773Z,101419.66
2023-01-07T07:38:13.323Z,101410.53
2023-01-07T07:40:39.873Z,101408.38
2023-01-07T07:43:10.460Z,101408.38
2023-01-07T07:45:40.007Z,101415.66
2023-01-07T07:48:07.767Z,101422.63
2023-01-07T07:50:35.116Z,101417.31
2023-01-07T07:53:01.618Z,101413.66
2023-01-07T07:55:28.155Z,101410.03
2023-01-07T07:57:55.815Z,101413.03
2023-01-07T08:00:22.859Z,101406.72
2023-01-07T08:02:49.394Z,101403.09
2023-01-07T08:05:16.090Z,101403.41
2023-01-07T08:07:43.087Z,101412.22
2023-01-07T08:10:09.662Z,101407.41
2023-01-07T08:12:39.444Z,101387.84
2023-01-07T08:15:07.391Z,101400.31
2023-01-07T08:17:34.287Z,101401.78
2023-01-07T08:20:00.811Z,101397.13
2023-01-07T08:22:27.314Z,101397.47
2023-01-07T08:24:54.143Z,101399.78
2023-01-07T08:27:21.027Z,101383.38
2023-01-07T08:29:47.584Z,101390.81
2023-01-07T08:32:14.107Z,101383.38
2023-01-07T08:34:40.682Z,101376.88
2023-01-07T08:37:07.289Z,101376.75
2023-01-07T08:39:33.939Z,101377.22
2023-01-07T08:42:00.422Z,101376.88
2023-01-07T08:44:26.955Z,101373.56
2023-01-07T08:46:54.464Z,101370.75
2023-01-07T08:49:21.371Z,101374.41
2023-01-07T08:51:47.896Z,101377.88
2023-01-07T08:54:15.167Z,101365.59
2023-01-07T08:56:41.644Z,101374.75
2023-01-07T08:59:08.240Z,101372.22
2023-01-07T09:01:34.828Z,101364.47
2023-01-07T09:04:01.455Z,101365.78
2023-01-07T09:06:27.929Z,101371.09
2023-01-07T09:08:55.518Z,101368.09
2023-01-07T09:11:21.992Z,101368.09
2023-01-07T09:13:48.527Z,101373.56
2023-01-07T09:16:15.071Z,101373.56
2023-01-07T09:18:41.582Z,101367.91
2023-01-07T09:21:08.260Z,101368.56
2023-01-07T09:23:34.810Z,101359.47
2023-01-07T09:26:01.335Z,101360.78
2023-01-07T09:28:27.830Z,101348.50
2023-01-07T09:30:56.657Z,101349.97
2023-01-07T09:33:23.398Z,101348.97
2023-01-07T09:35:50.003Z,101352.09
2023-01-07T09:38:16.615Z,101355.59
2023-01-07T09:40:44.600Z,101343.97
2023-01-07T09:43:14.939Z,101332.53
2023-01-07T09:45:52.404Z,101328.53
2023-01-07T09:48:42.587Z,101334.69
2023-01-07T09:51:15.091Z,101343.28
2023-01-07T09:53:47.096Z,101328.19
2023-01-07T09:56:30.141Z,101330.34
2023-01-07T09:58:59.006Z,101321.19
2023-01-07T10:01:42.298Z,101313.06
2023-01-07T10:04:21.093Z,101310.88
2023-01-07T10:06:59.536Z,101308.22
2023-01-07T10:09:56.672Z,101298.25
2023-01-07T10:12:50.699Z,101292.44
2023-01-07T10:15:43.645Z,101296.38
2023-01-07T10:18:23.937Z,101288.56
2023-01-07T10:21:05.544Z,101282.91
2023-01-07T10:23:41.176Z,101273.44
2023-01-07T10:26:22.384Z,101275.09
2023-01-07T10:29:00.182Z,101272.25
2023-01-07T10:31:28.402Z,101262.97
2023-01-07T10:33:57.291Z,101263.47
2023-01-07T10:36:28.683Z,101251.47
2023-01-07T10:38:55.059Z,101247.63
2023-01-07T10:41:40.505Z,101232.19
2023-01-07T10:44:25.648Z,101232.63
2023-01-07T10:47:07.307Z,101221.66
2023-01-07T10:50:01.554Z,101211.50
2023-01-07T10:52:45.254Z,101211.09
2023-01-07T10:55:30.953Z,101199.03
2023-01-07T10:57:57.437Z,101200.03
2023-01-07T11:00:24.795Z,101199.75
2023-01-07T11:02:56.571Z,101182.13
2023-01-07T11:05:28.468Z,101181.59
2023-01-07T11:07:59.254Z,101178.28
2023-01-07T11:10:30.333Z,101178.75
2023-01-07T11:13:21.406Z,101169.59
2023-01-07T11:15:55.270Z,101169.41
2023-01-07T11:18:33.324Z,101173.72
2023-01-07T11:21:01.335Z,101170.44
2023-01-07T11:23:36.912Z,101161.81
2023-01-07T11:26:25.338Z,101145.66
2023-01-07T11:28:57.817Z,101140.81
2023-01-07T11:31:44.947Z,101137.72
2023-01-07T11:34:27.595Z,101127.53
2023-01-07T11:36:54.460Z,101115.63
2023-01-07T11:39:29.612Z,101111.47
2023-01-07T11:41:58.141Z,101099.25
2023-01-07T11:44:25.471Z,101094.03
2023-01-07T11:46:53.053Z,101084.69
2023-01-07T11:49:27.924Z,101083.03
2023-01-07T11:51:54.913Z,101071.63
2023-01-07T11:54:31.842Z,101067.31
2023-01-07T11:57:21.649Z,101058.22
2023-01-07T11:59:48.200Z,101055.38
2023-01-07T12:02:26.893Z,101048.47
2023-01-07T12:05:18.411Z,101030.03
2023-01-07T12:07:47.350Z,101039.69
2023-01-07T12:10:29.083Z,101040.38
2023-01-07T12:12:56.295Z,101032.75
2023-01-07T12:15:27.177Z,101009.75
2023-01-07T12:18:08.643Z,101007.91
2023-01-07T12:20:56.301Z,101014.38
2023-01-07T12:23:29.889Z,101024.59
2023-01-07T12:26:13.906Z,101015.25
2023-01-07T12:29:00.493Z,101001.47
2023-01-07T12:31:35.870Z,101009.00
2023-01-07T12:34:07.705Z,100996.28
2023-01-07T12:36:46.573Z,100992.53
2023-01-07T12:39:21.737Z,100995.94
2023-01-07T12:42:13.777Z,100985.31
2023-01-07T12:44:49.725Z,100984.47
2023-01-07T12:47:33.097Z,100972.81
2023-01-07T12:50:04.032Z,100980.50
2023-01-07T12:52:45.613Z,100969.66
2023-01-07T12:55:20.958Z,100958.84
2023-01-07T12:58:06.403Z,100964.41
2023-01-07T13:00:43.090Z,100959.00
2023-01-07T13:03:29.815Z,100949.63
2023-01-07T13:06:38.462Z,100937.59
2023-01-07T13:09:35.015Z,100930.81
2023-01-07T13:12:42.014Z,100910.31
2023-01-07T13:15:12.528Z,100918.91
2023-01-07T13:17:40.725Z,100909.66
2023-01-07T13:20:12.824Z,100897.19
2023-01-07T13:22:54.053Z,100899.56
2023-01-07T13:25:42.936Z,100899.56
2023-01-07T13:28:26.430Z,100889.28
2023-01-07T13:31:37.547Z,100886.41
2023-01-07T13:34:20.758Z,100884.31
2023-01-07T13:36:56.236Z,100883.66
2023-01-07T13:39:41.410Z,100875.53
2023-01-07T13:42:19.777Z,100869.75
2023-01-07T13:44:46.178Z,100869.56
2023-01-07T13:47:18.828Z,100867.53
2023-01-07T13:49:56.121Z,100863.63
2023-01-07T13:52:26.658Z,100855.63
2023-01-07T13:54:56.148Z,100842.34
2023-01-07T13:57:31.794Z,100844.63
2023-01-07T14:00:00.860Z,100838.84
2023-01-07T14:02:29.336Z,100840.94
2023-01-07T14:05:25.023Z,100838.06
2023-01-07T14:07:54.201Z,100823.97
2023-01-07T14:10:33.776Z,100822.13
2023-01-07T14:13:22.993Z,100827.00
2023-01-07T14:16:35.826Z,100829.59
2023-01-07T14:19:06.717Z,100819.69
2023-01-07T14:21:42.413Z,100814.91
2023-01-07T14:24:32.247Z,100816.78
2023-01-07T14:27:07.060Z,100812.63
2023-01-07T14:29:44.891Z,100816.53
2023-01-07T14:32:32.621Z,100804.63
2023-01-07T14:35:08.097Z,100805.00
2023-01-07T14:37:45.087Z,100792.25
2023-01-07T14:40:26.634Z,100795.28
2023-01-07T14:42:54.309Z,100795.50
2023-01-07T14:45:39.146Z,100783.41
2023-01-07T14:48:08.683Z,100779.94
2023-01-07T14:50:38.729Z,100778.28
2023-01-07T14:53:58.578Z,100769.69
2023-01-07T14:56:51.376Z,100786.00
2023-01-07T14:59:38.969Z,100785.81
2023-01-07T15:02:05.453Z,100786.00
2023-01-07T15:04:58.035Z,100786.00
2023-01-07T15:07:27.121Z,100783.53
2023-01-07T15:10:16.619Z,100792.34
2023-01-07T15:13:14.103Z,100798.66
2023-01-07T15:16:04.080Z,100775.75
2023-01-07T15:18:50.893Z,100778.22
2023-01-07T15:21:26.311Z,100760.63
2023-01-07T15:24:03.185Z,100762.84
2023-01-07T15:26:43.235Z,100753.88
2023-01-07T15:29:09.633Z,100754.88
2023-01-07T15:31:50.828Z,100755.69
2023-01-07T15:34:18.351Z,100746.44
2023-01-07T15:36:48.684Z,100750.97
2023-01-07T15:39:21.497Z,100738.84
2023-01-07T15:41:52.299Z,100740.06
2023-01-07T15:44:23.913Z,100745.38
2023-01-07T15:46:50.526Z,100749.69
2023-01-07T15:49:25.101Z,100745.75
2023-01-07T15:51:55.827Z,100735.53
2023-01-07T15:54:34.917Z,100733.50
2023-01-07T15:57:09.954Z,100726.72
2023-01-07T15:59:45.840Z,100737.16
2023-01-07T16:02:27.643Z,100727.34
2023-01-07T16:04:57.565Z,100708.13
2023-01-07T16:07:28.970Z,100709.50
2023-01-07T16:09:57.667Z,100715.03
2023-01-07T16:12:34.991Z,100713.19
2023-01-07T16:15:19.901Z,100717.03
2023-01-07T16:17:51.351Z,100713.56
2023-01-07T16:21:13.365Z,100710.72
2023-01-07T16:23:40.760Z,100715.19
2023-01-07T16:26:27.410Z,100701.50
2023-01-07T16:29:06.081Z,100701.50
2023-01-07T16:31:35.359Z,100692.88
2023-01-07T16:34:16.063Z,100687.97
2023-01-07T16:36:44.459Z,100681.81
2023-01-07T16:39:20.793Z,100696.03
2023-01-07T16:41:47.619Z,100686.56
2023-01-07T16:44:37.111Z,100685.22
2023-01-07T16:47:07.283Z,100677.75
2023-01-07T16:49:33.913Z,100681.59
2023-01-07T16:52:03.185Z,100692.78
2023-01-07T16:54:34.288Z,100687.59
2023-01-07T16:57:04.124Z,100687.16
2023-01-07T16:59:36.950Z,100693.47
2023-01-07T17:02:35.078Z,100703.25
2023-01-07T17:05:25.796Z,100704.00
2023-01-07T17:07:59.938Z,100705.38
2023-01-07T17:10:30.231Z,100705.28
2023-01-07T17:13:15.025Z,100705.19
2023-01-07T17:15:42.359Z,100704.00
2023-01-07T17:18:11.995Z,100701.72
2023-01-07T17:20:52.659Z,100691.22
2023-01-07T17:23:25.253Z,100686.47
2023-01-07T17:26:00.849Z,100683.34
2023-01-07T17:28:30.024Z,100667.16
2023-01-07T17:30:56.623Z,100688.94
2023-01-07T17:33:24.931Z,100675.84
2023-01-07T17:35:53.561Z,100666.06
2023-01-07T17:38:20.979Z,100660.94
2023-01-07T17:40:48.082Z,100655.84
2023-01-07T17:43:36.926Z,100666.59
2023-01-07T17:46:06.091Z,100652.34
2023-01-07T17:48:33.427Z,100645.59
2023-01-07T17:51:01.385Z,100642.75
2023-01-07T17:53:31.971Z,100642.13
2023-01-07T17:56:00.328Z,100647.53
2023-01-07T17:58:35.292Z,100622.41
2023-01-07T18:01:06.404Z,100630.16
2023-01-07T18:03:33.453Z,100634.44
2023-01-07T18:06:00.035Z,100617.53
2023-01-07T18:08:26.627Z,100612.22
2023-01-07T18:11:12.670Z,100614.88
2023-01-07T18:13:39.765Z,100616.25
2023-01-07T18:16:06.852Z,100612.22
2023-01-07T18:18:33.438Z,100614.63
2023-01-07T18:20:59.971Z,100613.16
2023-01-07T18:23:26.570Z,100628.44
2023-01-07T18:25:53.071Z,100612.25
2023-01-07T18:28:19.598Z,100613.06
2023-01-07T18:30:46.042Z,100623.00
2023-01-07T18:33:12.811Z,100612.06
2023-01-07T18:35:42.734Z,100613.91
2023-01-07T18:38:13.606Z,100613.69
2023-01-07T18:40:40.574Z,100599.44
2023-01-07T18:43:07.249Z,100595.78
2023-01-07T18:45:33.759Z,100601.94
2023-01-07T18:48:00.258Z,100607.88
2023-01-07T18:50:26.821Z,100616.63
2023-01-07T18:52:53.321Z,100602.72
2023-01-07T18:55:20.921Z,100606.13
2023-01-07T18:57:47.433Z,100614.44
2023-01-07T19:00:14.359Z,100617.06
2023-01-07T19:02:40.867Z,100622.94
2023-01-07T19:05:07.637Z,100618.16
2023-01-07T19:07:35.179Z,100616.53
2023-01-07T19:10:02.511Z,100610.22
2023-01-07T19:12:29.105Z,100616.34
2023-01-07T19:14:55.654Z,100619.81
2023-01-07T19:17:22.222Z,100599.91
2023-01-07T19:19:49.223Z,100600.53
2023-01-07T19:22:16.587Z,100590.78
2023-01-07T19:24:43.932Z,100598.16
2023-01-07T19:27:10.998Z,100601.09
2023-01-07T19:29:37.568Z,100589.13
2023-01-07T19:32:04.589Z,100583.81
2023-01-07T19:34:31.180Z,100595.53
2023-01-07T19:36:57.655Z,100586.56
2023-01-07T19:39:24.614Z,100587.00
2023-01-07T19:41:51.685Z,100589.13
2023-01-07T19:44:18.297Z,100584.63
2023-01-07T19:46:44.886Z,100577.69
2023-01-07T19:49:13.445Z,100581.16
2023-01-07T19:51:41.303Z,100585.25
2023-01-07T19:54:11.299Z,100577.94
2023-01-07T19:56:39.617Z,100577.78
2023-01-07T19:59:06.099Z,100582.06
2023-01-07T20:01:32.737Z,100582.88
2023-01-07T20:03:59.596Z,100586.38
2023-01-07T20:06:28.248Z,100577.41
2023-01-07T20:08:56.499Z,100563.16
2023-01-07T20:11:23.551Z,100568.09
2023-01-07T20:13:50.573Z,100561.94
2023-01-07T20:16:22.944Z,100557.47
2023-01-07T20:18:52.042Z,100553.63
2023-01-07T20:21:21.944Z,100550.16
2023-01-07T20:23:49.033Z,100542.00
2023-01-07T20:26:21.573Z,100540.81
2023-01-07T20:28:48.787Z,100543.09
2023-01-07T20:31:17.472Z,100530.00
2023-01-07T20:33:44.976Z,100540.25
2023-01-07T20:36:14.794Z,100551.13
2023-01-07T20:38:42.824Z,100543.16
2023-01-07T20:41:15.620Z,100555.25
2023-01-07T20:43:42.260Z,100548.41
2023-01-07T20:46:10.077Z,100546.94
2023-01-07T20:48:37.469Z,100561.19
2023-01-07T20:51:08.722Z,100548.69
2023-01-07T20:53:36.543Z,100550.53
2023-01-07T20:56:04.152Z,100544.38
2023-01-07T20:58:32.419Z,100546.03
2023-01-07T21:01:03.304Z,100544.22
2023-01-07T21:03:29.839Z,100539.94
2023-01-07T21:05:57.531Z,100528.47
2023-01-07T21:08:24.847Z,100524.81
2023-01-07T21:10:52.163Z,100514.84
2023-01-07T21:13:19.767Z,100518.34
2023-01-07T21:15:46.401Z,100519.78
2023-01-07T21:18:12.911Z,100520.41
2023-01-07T21:20:40.604Z,100531.47
2023-01-07T21:23:07.518Z,100519.25
2023-01-07T21:25:34.033Z,100518.03
2023-01-07T21:28:00.590Z,100518.28
2023-01-07T21:30:28.301Z,100518.91
2023-01-07T21:32:58.088Z,100530.34
2023-01-07T21:35:24.565Z,100528.13
2023-01-07T21:37:54.466Z,100530.78
2023-01-07T21:40:21.856Z,100523.28
2023-01-07T21:42:48.623Z,100518.63
2023-01-07T21:45:15.426Z,100508.00
2023-01-07T21:47:42.303Z,100507.81
2023-01-07T21:50:09.419Z,100510.47
2023-01-07T21:52:36.307Z,100509.44
2023-01-07T21:55:02.989Z,100495.00
2023-01-07T21:57:29.589Z,100509.72
2023-01-07T21:59:56.037Z,100516.66
2023-01-07T22:02:22.526Z,100521.97
2023-01-07T22:04:49.071Z,100516.84
2023-01-07T22:07:17.591Z,100516.47
2023-01-07T22:09:44.583Z,100502.38
2023-01-07T22:12:12.452Z,100502.75
2023-01-07T22:14:39.014Z,100508.44
2023-01-07T22:17:06.474Z,100513.94
2023-01-07T22:19:33.055Z,100509.28
2023-01-07T22:21:59.678Z,100512.09
2023-01-07T22:24:26.147Z,100501.69
2023-01-07T22:26:52.934Z,100500.06
2023-01-07T22:29:19.429Z,100499.84
2023-01-07T22:31:48.880Z,100496.56
2023-01-07T22:34:15.516Z,100491.91
2023-01-07T22:37:03.432Z,100492.34
2023-01-07T22:39:34.880Z,100497.06
2023-01-07T22:42:11.672Z,100505.66
2023-01-07T22:44:45.227Z,100490.59
2023-01-07T22:47:14.795Z,100477.94
2023-01-07T22:49:42.067Z,100485.91
2023-01-07T22:52:08.730Z,100492.66
2023-01-07T22:54:36.144Z,100494.91
2023-01-07T22:57:06.215Z,100503.91
2023-01-07T22:59:32.717Z,100504.19
2023-01-07T23:01:59.224Z,100500.72
2023-01-07T23:04:25.767Z,100511.75
2023-01-07T23:06:52.378Z,100509.94
2023-01-07T23:09:18.867Z,100496.84
2023-01-07T23:11:48.266Z,100494.44
2023-01-07T23:14:16.466Z,100490.78
2023-01-07T23:16:43.325Z,100489.13
2023-01-07T23:19:09.925Z,100480.16
2023-01-07T23:21:40.188Z,100487.69
2023-01-07T23:24:06.788Z,100503.03
2023-01-07T23:26:33.327Z,100506.69
2023-01-07T23:28:59.813Z,100501.78
2023-01-07T23:31:26.305Z,100491.78
2023-01-07T23:33:52.834Z,100487.50
2023-01-07T23:36:19.338Z,100495.28
2023-01-07T23:38:46.293Z,100482.56
2023-01-07T23:41:13.516Z,100492.16
2023-01-07T23:43:40.028Z,100502.16
2023-01-07T23:46:07.530Z,100540.88
2023-01-07T23:48:35.958Z,100567.69
2023-01-07T23:51:07.163Z,100566.03
2023-01-07T23:53:34.738Z,100557.06
2023-01-07T23:56:01.670Z,100564.59
2023-01-07T23:58:28.660Z,100558.91
